Time;durP1;ratioP1;P1;durP2;ratioP2;P2;SDS_P1;SDS_P2;PMS_P1;PMS_P2;Temp;Humidity;BMP_temperature;BMP_pressure;BME280_temperature;BME280_humidity;BME280_pressure;Samples;Min_cycle;Max_cycle;Signal;HPM_P1;HPM_P2
2024/03/13 00:00:29;;;;;;;4.88;4.32;;;;;;;;;;5055316;28;20036;-58
2024/03/13 00:02:56;;;;;;;3.53;2.88;;;;;;;;;;5055344;28;20040;-59
2024/03/13 00:05:22;;;;;;;8.52;3.53;;;;;;;;;;5055304;28;20048;-59
2024/03/13 00:07:48;;;;;;;6.40;3.17;;;;;;;;;;5055188;28;20033;-59
2024/03/13 00:10:14;;;;;;;3.90;3.03;;;;;;;;;;5055236;28;20025;-59
2024/03/13 00:12:42;;;;;;;4.63;3.05;;;;;;;;;;5055029;28;20572;-59
2024/03/13 00:15:10;;;;;;;8.25;3.28;;;;;;;;;;5054698;28;20502;-59
2024/03/13 00:17:38;;;;;;;4.13;3.10;;;;;;;;;;5054915;28;20061;-59
2024/03/13 00:20:04;;;;;;;5.20;2.42;;;;;;;;;;5055464;28;20021;-59
2024/03/13 00:22:30;;;;;;;3.97;2.22;;;;;;;;;;5054988;28;20044;-59
2024/03/13 00:24:57;;;;;;;3.97;2.25;;;;;;;;;;5054916;28;20033;-59
2024/03/13 00:27:23;;;;;;;2.92;1.50;;;;;;;;;;5055426;28;20081;-59
2024/03/13 00:29:49;;;;;;;3.00;2.20;;;;;;;;;;5055653;28;20398;-59
2024/03/13 00:32:16;;;;;;;2.25;1.27;;;;;;;;;;5054489;28;20360;-59
2024/03/13 00:34:45;;;;;;;3.10;1.60;;;;;;;;;;5054681;28;20029;-59
2024/03/13 00:37:12;;;;;;;4.78;1.95;;;;;;;;;;5055090;28;20025;-58
2024/03/13 00:39:38;;;;;;;2.72;1.35;;;;;;;;;;5055192;28;20021;-59
2024/03/13 00:42:05;;;;;;;2.45;1.58;;;;;;;;;;5054526;28;20033;-59
2024/03/13 00:44:31;;;;;;;3.45;2.00;;;;;;;;;;5054707;28;20033;-59
2024/03/13 00:46:57;;;;;;;2.45;1.15;;;;;;;;;;5054237;28;20430;-59
2024/03/13 00:49:23;;;;;;;3.22;1.38;;;;;;;;;;5054980;28;20021;-59
2024/03/13 00:51:49;;;;;;;2.63;1.48;;;;;;;;;;5055040;28;20029;-58
2024/03/13 00:54:15;;;;;;;2.47;1.35;;;;;;;;;;5054653;28;20044;-59
2024/03/13 00:56:41;;;;;;;2.88;1.70;;;;;;;;;;5054662;28;20053;-58
2024/03/13 00:59:11;;;;;;;2.35;1.35;;;;;;;;;;5053551;28;20040;-59
2024/03/13 01:01:40;;;;;;;6.10;1.02;;;;;;;;;;5054505;28;20574;-59
2024/03/13 01:04:07;;;;;;;2.38;1.20;;;;;;;;;;5054669;28;20451;-59
2024/03/13 01:06:33;;;;;;;2.67;1.10;;;;;;;;;;5054311;28;20032;-59
2024/03/13 01:08:59;;;;;;;2.25;1.15;;;;;;;;;;5054135;28;20021;-59
2024/03/13 01:11:25;;;;;;;1.38;0.70;;;;;;;;;;5053923;28;20029;-59
2024/03/13 01:13:51;;;;;;;1.95;1.13;;;;;;;;;;5054659;28;20028;-57
2024/03/13 01:16:17;;;;;;;1.50;0.90;;;;;;;;;;5054498;28;20099;-59
2024/03/13 01:18:43;;;;;;;3.75;1.02;;;;;;;;;;5053928;28;20025;-58
2024/03/13 01:21:09;;;;;;;1.60;0.98;;;;;;;;;;5053646;28;20474;-59
2024/03/13 01:23:35;;;;;;;2.05;1.00;;;;;;;;;;5053630;28;20025;-59
2024/03/13 01:26:04;;;;;;;1.63;0.93;;;;;;;;;;5053797;28;20029;-59
2024/03/13 01:28:30;;;;;;;2.08;1.08;;;;;;;;;;5054421;28;20033;-59
2024/03/13 01:30:56;;;;;;;1.88;1.00;;;;;;;;;;5053705;28;20032;-59
2024/03/13 01:33:22;;;;;;;1.55;0.88;;;;;;;;;;5053677;28;20379;-59
2024/03/13 01:35:48;;;;;;;1.17;0.60;;;;;;;;;;5053996;28;20332;-59
2024/03/13 01:38:14;;;;;;;1.27;0.65;;;;;;;;;;5054207;28;20508;-59
2024/03/13 01:57:13;;;;;;;0.73;0.38;;;;;;;;;;5053561;28;20395;-59
2024/03/13 02:02:28;;;;;;;1.60;0.77;;;;;;;;;;5053546;28;20442;-59
2024/03/13 02:04:55;;;;;;;1.92;0.95;;;;;;;;;;5052991;28;20029;-59
2024/03/13 02:07:23;;;;;;;1.15;0.55;;;;;;;;;;5053163;28;20143;-59
2024/03/13 02:09:49;;;;;;;1.33;0.70;;;;;;;;;;5053994;28;20422;-59
2024/03/13 02:12:15;;;;;;;1.67;0.55;;;;;;;;;;5057362;28;20028;-59
2024/03/13 02:14:41;;;;;;;0.90;0.40;;;;;;;;;;5057868;28;20090;-59
2024/03/13 02:17:07;;;;;;;1.27;0.55;;;;;;;;;;5057419;28;20104;-59
2024/03/13 02:19:37;;;;;;;1.60;0.60;;;;;;;;;;5057863;28;20111;-59
2024/03/13 02:22:07;;;;;;;0.60;0.30;;;;;;;;;;5057662;28;20028;-59
2024/03/13 02:24:33;;;;;;;0.50;0.30;;;;;;;;;;5057634;28;20070;-59
2024/03/13 02:27:00;;;;;;;0.47;0.15;;;;;;;;;;5057308;28;20025;-59
2024/03/13 02:29:26;;;;;;;0.10;0.00;;;;;;;;;;5057798;28;20341;-59
2024/03/13 02:31:52;;;;;;;0.30;0.10;;;;;;;;;;5057383;28;20043;-59
2024/03/13 02:34:18;;;;;;;0.93;0.30;;;;;;;;;;5057727;28;20033;-59
2024/03/13 02:36:49;;;;;;;0.88;0.30;;;;;;;;;;5056985;28;20021;-59
2024/03/13 02:39:18;;;;;;;0.75;0.20;;;;;;;;;;5057575;28;20078;-59
2024/03/13 02:41:45;;;;;;;1.08;0.40;;;;;;;;;;5056835;28;20479;-59
2024/03/13 02:44:11;;;;;;;0.73;0.30;;;;;;;;;;5057312;28;20017;-59
2024/03/13 02:46:37;;;;;;;0.98;0.52;;;;;;;;;;5056819;28;20017;-59
2024/03/13 02:49:02;;;;;;;1.02;0.60;;;;;;;;;;5057212;28;20028;-59
2024/03/13 02:51:29;;;;;;;1.80;0.80;;;;;;;;;;5056707;28;20032;-59
2024/03/13 02:53:54;;;;;;;2.20;0.95;;;;;;;;;;5056743;28;20116;-59
2024/03/13 02:56:20;;;;;;;2.45;1.13;;;;;;;;;;5056773;28;20095;-59
2024/03/13 02:58:48;;;;;;;2.10;1.13;;;;;;;;;;5057197;28;20021;-59
2024/03/13 03:01:14;;;;;;;3.38;1.48;;;;;;;;;;5056651;28;20500;-59
2024/03/13 03:03:40;;;;;;;4.13;1.55;;;;;;;;;;5056586;28;20386;-59
2024/03/13 03:06:06;;;;;;;2.00;1.00;;;;;;;;;;5057043;28;20104;-59
2024/03/13 03:08:35;;;;;;;1.70;0.80;;;;;;;;;;5057068;28;20025;-59
2024/03/13 03:11:03;;;;;;;1.27;0.57;;;;;;;;;;5056341;28;20040;-59
2024/03/13 03:13:29;;;;;;;0.95;0.50;;;;;;;;;;5056456;28;20367;-59
2024/03/13 03:15:55;;;;;;;2.30;0.90;;;;;;;;;;5056423;28;20036;-59
2024/03/13 03:18:22;;;;;;;0.93;0.50;;;;;;;;;;5056938;28;20073;-59
2024/03/13 03:20:48;;;;;;;1.08;0.60;;;;;;;;;;5056859;28;20048;-59
2024/03/13 03:23:15;;;;;;;1.05;0.47;;;;;;;;;;5055698;28;20036;-59
2024/03/13 03:25:41;;;;;;;1.48;0.70;;;;;;;;;;5056196;28;20047;-59
2024/03/13 03:28:08;;;;;;;2.58;1.05;;;;;;;;;;5056416;28;20029;-59
2024/03/13 03:30:41;;;;;;;1.45;0.63;;;;;;;;;;5055976;28;20029;-59
2024/03/13 03:33:07;;;;;;;1.35;0.52;;;;;;;;;;5056589;28;20061;-59
2024/03/13 03:35:34;;;;;;;1.48;0.77;;;;;;;;;;5056524;28;20055;-59
2024/03/13 03:38:04;;;;;;;1.08;0.57;;;;;;;;;;5056353;28;20524;-59
2024/03/13 03:40:30;;;;;;;1.23;0.60;;;;;;;;;;5055705;28;20454;-59
2024/03/13 03:42:58;;;;;;;1.67;0.70;;;;;;;;;;5055838;28;20056;-59
2024/03/13 03:45:24;;;;;;;1.65;0.60;;;;;;;;;;5055745;28;20052;-59
2024/03/13 03:47:50;;;;;;;1.15;0.40;;;;;;;;;;5056232;28;20087;-59
2024/03/13 03:50:17;;;;;;;0.75;0.30;;;;;;;;;;5055883;28;20049;-59
2024/03/13 03:52:43;;;;;;;1.63;0.55;;;;;;;;;;5055470;28;20021;-59
2024/03/13 03:55:09;;;;;;;1.40;0.50;;;;;;;;;;5055800;28;20094;-59
2024/03/13 03:57:35;;;;;;;1.10;0.68;;;;;;;;;;5055994;28;20049;-59
2024/03/13 04:00:01;;;;;;;1.38;0.52;;;;;;;;;;5055842;28;20025;-59
2024/03/13 04:02:27;;;;;;;0.50;0.30;;;;;;;;;;5055864;28;20032;-59
2024/03/13 04:04:53;;;;;;;1.33;0.70;;;;;;;;;;5055282;28;20025;-59
2024/03/13 04:07:20;;;;;;;1.30;0.45;;;;;;;;;;5055590;28;20021;-59
2024/03/13 04:09:47;;;;;;;0.90;0.50;;;;;;;;;;5055779;28;20081;-59
2024/03/13 04:12:13;;;;;;;1.23;0.63;;;;;;;;;;5055058;28;20033;-59
2024/03/13 04:14:39;;;;;;;1.90;0.90;;;;;;;;;;5055144;28;20036;-59
2024/03/13 04:17:05;;;;;;;1.60;0.68;;;;;;;;;;5055146;28;20371;-59
2024/03/13 04:19:31;;;;;;;2.00;0.70;;;;;;;;;;5055654;28;20029;-59
2024/03/13 04:21:58;;;;;;;1.27;0.60;;;;;;;;;;5055147;28;20035;-59
2024/03/13 04:24:24;;;;;;;1.20;0.68;;;;;;;;;;5054948;28;20020;-59
2024/03/13 04:26:50;;;;;;;2.13;0.90;;;;;;;;;;5054955;28;20025;-59
2024/03/13 04:29:16;;;;;;;1.60;1.00;;;;;;;;;;5055357;28;20087;-59
2024/03/13 04:31:42;;;;;;;1.58;1.10;;;;;;;;;;5055099;28;20087;-60
2024/03/13 04:34:08;;;;;;;2.40;1.50;;;;;;;;;;5053869;28;20090;-59
2024/03/13 04:36:40;;;;;;;3.42;1.63;;;;;;;;;;5054826;28;20459;-59
2024/03/13 04:39:09;;;;;;;2.33;1.35;;;;;;;;;;5055398;28;20368;-59
2024/03/13 04:41:39;;;;;;;3.65;1.83;;;;;;;;;;5054923;28;20364;-59
2024/03/13 04:44:05;;;;;;;2.22;1.50;;;;;;;;;;5055173;28;20094;-59
2024/03/13 04:46:31;;;;;;;2.72;1.50;;;;;;;;;;5054660;28;20526;-59
2024/03/13 04:48:56;;;;;;;2.40;1.50;;;;;;;;;;5054927;28;20567;-59
2024/03/13 04:51:22;;;;;;;2.22;1.23;;;;;;;;;;5054415;28;20025;-59
2024/03/13 04:53:48;;;;;;;2.47;1.60;;;;;;;;;;5055027;28;20032;-59
2024/03/13 04:56:14;;;;;;;2.80;1.55;;;;;;;;;;5054480;28;20045;-60
2024/03/13 04:58:41;;;;;;;2.70;1.75;;;;;;;;;;5054878;28;20029;-59
2024/03/13 05:01:07;;;;;;;2.25;1.55;;;;;;;;;;5054873;28;20039;-59
2024/03/13 05:03:33;;;;;;;3.17;1.30;;;;;;;;;;5054035;28;20075;-59
2024/03/13 05:06:00;;;;;;;2.47;1.65;;;;;;;;;;5054445;28;20028;-60
2024/03/13 05:08:26;;;;;;;2.00;1.35;;;;;;;;;;5054682;28;20116;-60
2024/03/13 05:10:52;;;;;;;2.83;1.58;;;;;;;;;;5054554;28;20451;-60
2024/03/13 05:13:18;;;;;;;2.20;1.58;;;;;;;;;;5054019;28;20071;-59
2024/03/13 05:15:44;;;;;;;2.20;1.13;;;;;;;;;;5054047;28;20025;-59
2024/03/13 05:18:10;;;;;;;5.90;1.77;;;;;;;;;;5054581;28;20033;-59
2024/03/13 05:20:36;;;;;;;2.83;1.83;;;;;;;;;;5053779;28;20459;-59
2024/03/13 05:23:06;;;;;;;3.85;1.65;;;;;;;;;;5054323;28;20036;-60
2024/03/13 05:25:32;;;;;;;3.10;2.30;;;;;;;;;;5054239;28;20171;-59
2024/03/13 05:27:58;;;;;;;3.20;2.50;;;;;;;;;;5053699;28;20108;-59
2024/03/13 05:30:24;;;;;;;2.85;2.08;;;;;;;;;;5054510;28;20032;-59
2024/03/13 05:32:50;;;;;;;3.17;2.15;;;;;;;;;;5053704;28;20178;-59
2024/03/13 05:35:16;;;;;;;2.45;1.83;;;;;;;;;;5053938;28;20036;-59
2024/03/13 05:37:42;;;;;;;3.22;2.13;;;;;;;;;;5054055;28;20086;-59
2024/03/13 05:40:12;;;;;;;4.57;2.55;;;;;;;;;;5054628;28;20025;-59
2024/03/13 05:42:39;;;;;;;4.65;2.88;;;;;;;;;;5054284;28;20090;-59
2024/03/13 05:45:08;;;;;;;3.15;1.92;;;;;;;;;;5053478;28;20107;-59
2024/03/13 05:47:34;;;;;;;4.68;3.25;;;;;;;;;;5054541;28;20024;-59
2024/03/13 05:50:00;;;;;;;4.28;3.13;;;;;;;;;;5054166;28;20481;-59
2024/03/13 05:52:26;;;;;;;4.50;3.42;;;;;;;;;;5054192;28;20056;-59
2024/03/13 05:54:52;;;;;;;3.88;2.95;;;;;;;;;;5054080;28;20029;-59
2024/03/13 05:57:22;;;;;;;4.43;3.47;;;;;;;;;;5054181;28;20044;-59
2024/03/13 05:59:49;;;;;;;3.72;3.13;;;;;;;;;;5054238;28;20055;-59
2024/03/13 06:02:15;;;;;;;4.00;2.17;;;;;;;;;;5053559;28;20488;-59
2024/03/13 06:04:42;;;;;;;3.50;2.75;;;;;;;;;;5053599;28;20029;-60
2024/03/13 06:07:08;;;;;;;4.75;3.08;;;;;;;;;;5053336;28;20025;-59
2024/03/13 06:09:34;;;;;;;3.78;3.10;;;;;;;;;;5053415;28;20057;-59
2024/03/13 06:12:00;;;;;;;2.92;2.47;;;;;;;;;;5051965;28;20037;-58
2024/03/13 06:15:19;;;;;;;3.78;2.88;;;;;;;;;;5053893;28;20363;-58
2024/03/13 06:17:38;;;;;;;3.95;2.85;;;;;;;;;;5051856;28;20036;-58
2024/03/13 06:20:12;;;;;;;4.68;3.45;;;;;;;;;;5053685;28;20021;-57
2024/03/13 06:22:40;;;;;;;3.25;2.63;;;;;;;;;;5053954;28;20301;-57
2024/03/13 06:25:06;;;;;;;4.30;3.30;;;;;;;;;;5053565;28;20104;-58
2024/03/13 06:27:33;;;;;;;3.78;3.17;;;;;;;;;;5053251;28;20031;-58
2024/03/13 06:30:00;;;;;;;4.28;2.53;;;;;;;;;;5053795;28;20021;-58
2024/03/13 06:32:28;;;;;;;3.75;2.90;;;;;;;;;;5053114;28;20386;-57
2024/03/13 06:34:55;;;;;;;4.28;3.40;;;;;;;;;;5053155;28;20026;-58
2024/03/13 06:37:22;;;;;;;4.05;3.10;;;;;;;;;;5053656;28;20025;-57
2024/03/13 06:39:48;;;;;;;6.22;3.65;;;;;;;;;;5053845;28;20460;-58
2024/03/13 06:42:15;;;;;;;3.67;2.88;;;;;;;;;;5053062;28;20021;-58
2024/03/13 06:44:41;;;;;;;6.47;3.42;;;;;;;;;;5053701;28;20337;-58
2024/03/13 06:47:07;;;;;;;6.03;5.30;;;;;;;;;;5052667;28;20047;-57
2024/03/13 06:49:33;;;;;;;5.93;4.50;;;;;;;;;;5053653;28;20375;-58
2024/03/13 06:51:59;;;;;;;5.03;3.70;;;;;;;;;;5052974;28;20057;-58
2024/03/13 06:54:25;;;;;;;15.27;4.47;;;;;;;;;;5053058;28;20021;-58
2024/03/13 06:56:51;;;;;;;4.78;3.72;;;;;;;;;;5053926;28;20048;-59
2024/03/13 06:59:17;;;;;;;5.72;4.45;;;;;;;;;;5057230;28;20110;-59
2024/03/13 07:01:46;;;;;;;4.93;3.92;;;;;;;;;;5056524;28;20079;-58
2024/03/13 07:04:12;;;;;;;5.90;4.43;;;;;;;;;;5056614;28;20387;-58
2024/03/13 07:06:38;;;;;;;6.05;4.65;;;;;;;;;;5056556;28;20036;-58
2024/03/13 07:09:05;;;;;;;6.63;5.18;;;;;;;;;;5057366;28;20028;-58
2024/03/13 07:11:31;;;;;;;6.45;4.63;;;;;;;;;;5056306;28;20044;-58
2024/03/13 07:13:57;;;;;;;8.07;5.80;;;;;;;;;;5056809;28;20029;-58
2024/03/13 07:16:23;;;;;;;5.90;5.18;;;;;;;;;;5056977;28;20078;-58
2024/03/13 07:18:49;;;;;;;7.68;5.53;;;;;;;;;;5056692;28;20029;-58
2024/03/13 07:21:15;;;;;;;14.00;5.18;;;;;;;;;;5056313;28;20170;-58
2024/03/13 07:23:41;;;;;;;6.45;5.60;;;;;;;;;;5056488;28;20029;-58
2024/03/13 07:26:08;;;;;;;6.80;5.93;;;;;;;;;;5056236;28;20367;-59
2024/03/13 07:28:37;;;;;;;6.70;5.05;;;;;;;;;;5056769;28;20025;-59
2024/03/13 07:31:04;;;;;;;5.85;5.25;;;;;;;;;;5056176;28;20394;-58
2024/03/13 07:33:30;;;;;;;6.40;5.10;;;;;;;;;;5055973;28;20116;-58
2024/03/13 07:35:56;;;;;;;5.70;5.05;;;;;;;;;;5056423;28;20029;-59
2024/03/13 07:38:22;;;;;;;5.63;4.95;;;;;;;;;;5055955;28;20025;-59
2024/03/13 07:40:48;;;;;;;6.65;5.38;;;;;;;;;;5056388;28;20340;-58
2024/03/13 07:43:14;;;;;;;7.53;6.47;;;;;;;;;;5055667;28;20083;-58
2024/03/13 07:45:40;;;;;;;6.78;6.03;;;;;;;;;;5056431;28;20028;-58
2024/03/13 07:48:10;;;;;;;7.07;6.38;;;;;;;;;;5055958;28;20370;-58
2024/03/13 07:50:38;;;;;;;11.15;7.03;;;;;;;;;;5056330;28;20032;-58
2024/03/13 07:53:04;;;;;;;5.90;5.28;;;;;;;;;;5055645;28;20045;-58
2024/03/13 07:55:31;;;;;;;6.15;5.40;;;;;;;;;;5055611;28;20020;-59
2024/03/13 07:57:57;;;;;;;6.78;5.63;;;;;;;;;;5055631;28;20025;-58
2024/03/13 08:00:23;;;;;;;6.28;5.28;;;;;;;;;;5056139;28;20090;-58
2024/03/13 08:02:49;;;;;;;6.45;5.18;;;;;;;;;;5055637;28;20051;-58
2024/03/13 08:05:16;;;;;;;5.75;4.97;;;;;;;;;;5055227;28;20032;-58
2024/03/13 08:07:44;;;;;;;6.68;5.57;;;;;;;;;;5055750;28;20091;-59
2024/03/13 08:10:10;;;;;;;5.32;4.13;;;;;;;;;;5055574;28;20459;-59
2024/03/13 08:12:36;;;;;;;5.78;4.25;;;;;;;;;;5055052;28;20549;-57
2024/03/13 08:15:02;;;;;;;7.40;4.78;;;;;;;;;;5055273;28;20021;-59
2024/03/13 08:17:28;;;;;;;4.65;4.22;;;;;;;;;;5055287;28;20029;-59
2024/03/13 08:19:54;;;;;;;5.68;4.20;;;;;;;;;;5055828;28;20036;-59
2024/03/13 08:22:20;;;;;;;5.80;4.55;;;;;;;;;;5055233;28;20091;-58
2024/03/13 08:24:46;;;;;;;5.97;4.55;;;;;;;;;;5054873;28;20025;-59
2024/03/13 08:27:12;;;;;;;6.70;4.65;;;;;;;;;;5055342;28;20025;-58
2024/03/13 08:29:39;;;;;;;5.97;4.35;;;;;;;;;;5055398;28;20336;-58
2024/03/13 08:32:06;;;;;;;5.03;4.07;;;;;;;;;;5055083;28;20119;-59
2024/03/13 08:34:33;;;;;;;7.05;4.00;;;;;;;;;;5055763;28;20036;-59
2024/03/13 08:36:58;;;;;;;8.02;5.22;;;;;;;;;;5055723;28;20178;-59
2024/03/13 08:39:27;;;;;;;6.68;5.07;;;;;;;;;;5055783;28;20499;-59
2024/03/13 08:41:53;;;;;;;4.85;3.97;;;;;;;;;;5054599;28;20546;-59
2024/03/13 08:44:19;;;;;;;5.13;4.22;;;;;;;;;;5054765;28;20052;-59
2024/03/13 08:46:45;;;;;;;3.97;3.58;;;;;;;;;;5054529;28;20467;-59
2024/03/13 08:49:11;;;;;;;4.97;4.00;;;;;;;;;;5055473;28;20040;-58
2024/03/13 08:51:37;;;;;;;4.35;3.42;;;;;;;;;;5054557;28;20100;-59
2024/03/13 08:54:05;;;;;;;4.13;3.72;;;;;;;;;;5054625;28;20128;-59
2024/03/13 08:56:37;;;;;;;5.82;3.83;;;;;;;;;;5054392;28;20063;-58
2024/03/13 08:59:03;;;;;;;4.72;4.07;;;;;;;;;;5055031;28;20371;-59
2024/03/13 09:01:29;;;;;;;4.32;3.65;;;;;;;;;;5054915;28;20036;-59
2024/03/13 09:03:56;;;;;;;4.22;3.28;;;;;;;;;;5054870;28;20025;-59
2024/03/13 09:06:22;;;;;;;4.22;3.33;;;;;;;;;;5054306;28;20459;-59
2024/03/13 09:08:48;;;;;;;5.80;2.97;;;;;;;;;;5054589;28;20029;-59
2024/03/13 09:11:16;;;;;;;5.85;3.40;;;;;;;;;;5053956;28;20033;-59
2024/03/13 09:13:42;;;;;;;3.15;2.50;;;;;;;;;;5054241;28;20467;-59
2024/03/13 09:16:11;;;;;;;2.92;2.00;;;;;;;;;;5054540;28;20151;-59
2024/03/13 09:18:37;;;;;;;2.78;1.90;;;;;;;;;;5054504;28;20025;-59
2024/03/13 09:21:03;;;;;;;2.05;1.20;;;;;;;;;;5053615;28;20032;-59
2024/03/13 09:23:30;;;;;;;2.25;1.30;;;;;;;;;;5054072;28;20100;-59
2024/03/13 09:25:57;;;;;;;2.63;1.63;;;;;;;;;;5054193;28;20029;-59
2024/03/13 09:28:22;;;;;;;2.60;1.58;;;;;;;;;;5054374;28;20096;-59
2024/03/13 09:30:48;;;;;;;1.70;1.00;;;;;;;;;;5054658;28;20021;-59
2024/03/13 09:33:14;;;;;;;2.25;1.33;;;;;;;;;;5053828;28;20033;-59
2024/03/13 09:35:40;;;;;;;1.92;1.10;;;;;;;;;;5053620;28;20074;-59
2024/03/13 09:38:08;;;;;;;2.97;1.33;;;;;;;;;;5054705;28;20112;-59
2024/03/13 09:40:34;;;;;;;1.70;0.90;;;;;;;;;;5054092;28;20033;-59
2024/03/13 09:43:01;;;;;;;1.50;0.73;;;;;;;;;;5054073;28;20103;-59
2024/03/13 09:45:27;;;;;;;4.72;3.58;;;;;;;;;;5053704;28;20047;-59
2024/03/13 09:47:53;;;;;;;2.10;1.75;;;;;;;;;;5053686;28;20067;-59
2024/03/13 09:50:20;;;;;;;2.20;0.80;;;;;;;;;;5054398;28;20032;-59
2024/03/13 09:52:49;;;;;;;0.80;0.40;;;;;;;;;;5053493;28;20383;-59
2024/03/13 09:55:18;;;;;;;0.98;0.40;;;;;;;;;;5054384;28;20032;-59
2024/03/13 09:57:44;;;;;;;1.95;0.75;;;;;;;;;;5054699;28;20090;-59
2024/03/13 10:00:19;;;;;;;1.00;0.30;;;;;;;;;;5053847;28;20108;-59
2024/03/13 10:02:51;;;;;;;1.25;0.52;;;;;;;;;;5054383;28;20033;-60
2024/03/13 10:05:19;;;;;;;0.88;0.55;;;;;;;;;;5053569;28;20483;-59
2024/03/13 10:07:49;;;;;;;0.88;0.40;;;;;;;;;;5053994;28;20025;-59
2024/03/13 10:10:22;;;;;;;1.50;0.60;;;;;;;;;;5053613;28;20029;-60
2024/03/13 10:12:48;;;;;;;2.42;1.00;;;;;;;;;;5053372;28;20039;-59
2024/03/13 10:15:15;;;;;;;1.35;0.73;;;;;;;;;;5053539;28;20052;-60
2024/03/13 10:17:43;;;;;;;1.20;0.60;;;;;;;;;;5053453;28;20032;-60
2024/03/13 10:20:14;;;;;;;1.00;0.50;;;;;;;;;;5054241;28;20029;-59
2024/03/13 10:22:40;;;;;;;1.50;0.70;;;;;;;;;;5053482;28;20364;-60
2024/03/13 10:25:11;;;;;;;1.08;0.57;;;;;;;;;;5053267;28;20064;-60
2024/03/13 10:27:38;;;;;;;1.52;0.80;;;;;;;;;;5054102;28;20032;-60
2024/03/13 10:30:04;;;;;;;1.52;0.68;;;;;;;;;;5054060;28;20060;-60
2024/03/13 10:32:30;;;;;;;1.20;0.65;;;;;;;;;;5054474;28;20033;-60
2024/03/13 10:34:56;;;;;;;1.30;0.68;;;;;;;;;;5057292;28;20082;-59
2024/03/13 10:37:23;;;;;;;1.50;0.75;;;;;;;;;;5057171;28;20113;-59
2024/03/13 10:39:49;;;;;;;1.50;0.77;;;;;;;;;;5057443;28;20029;-59
2024/03/13 10:42:16;;;;;;;2.53;1.02;;;;;;;;;;5057613;28;20051;-59
2024/03/13 10:44:42;;;;;;;1.13;0.60;;;;;;;;;;5057085;28;20025;-59
2024/03/13 10:47:09;;;;;;;1.23;0.70;;;;;;;;;;5057508;28;20033;-59
2024/03/13 10:49:35;;;;;;;1.80;1.00;;;;;;;;;;5057675;28;20044;-59
2024/03/13 10:52:09;;;;;;;1.65;0.90;;;;;;;;;;5056910;28;20032;-60
2024/03/13 10:54:35;;;;;;;1.40;0.75;;;;;;;;;;5056869;28;20072;-59
2024/03/13 10:57:01;;;;;;;1.42;0.80;;;;;;;;;;5057383;28;20095;-59
2024/03/13 10:59:29;;;;;;;1.20;0.70;;;;;;;;;;5057590;28;20025;-59
2024/03/13 11:01:56;;;;;;;2.05;0.85;;;;;;;;;;5057263;28;20039;-59
2024/03/13 11:04:22;;;;;;;2.72;0.98;;;;;;;;;;5057176;28;20036;-59
2024/03/13 11:06:48;;;;;;;1.33;0.68;;;;;;;;;;5056431;28;20481;-59
2024/03/13 11:09:23;;;;;;;2.75;1.17;;;;;;;;;;5056282;28;20178;-59
2024/03/13 11:11:51;;;;;;;1.30;0.85;;;;;;;;;;5056903;28;20037;-59
2024/03/13 11:14:18;;;;;;;1.83;0.95;;;;;;;;;;5057247;28;20033;-59
2024/03/13 11:16:47;;;;;;;2.28;0.98;;;;;;;;;;5057014;28;20021;-59
2024/03/13 11:19:16;;;;;;;2.83;0.93;;;;;;;;;;5057006;28;20040;-59
2024/03/13 11:22:08;;;;;;;1.15;0.70;;;;;;;;;;5056077;28;20139;-59
2024/03/13 11:24:35;;;;;;;2.25;1.02;;;;;;;;;;5056018;28;20040;-59
2024/03/13 11:27:10;;;;;;;1.65;0.85;;;;;;;;;;5056242;28;20029;-59
2024/03/13 11:29:43;;;;;;;1.42;1.00;;;;;;;;;;5056808;28;20371;-59
2024/03/13 11:32:09;;;;;;;3.05;1.40;;;;;;;;;;5056576;28;20135;-59
2024/03/13 11:34:36;;;;;;;3.00;1.38;;;;;;;;;;5056954;28;20031;-59
2024/03/13 11:37:04;;;;;;;1.80;1.00;;;;;;;;;;5056150;28;20430;-59
2024/03/13 11:39:31;;;;;;;3.53;1.77;;;;;;;;;;5056955;28;20033;-59
2024/03/13 11:42:06;;;;;;;1.70;1.20;;;;;;;;;;5056520;28;20128;-59
2024/03/13 11:44:32;;;;;;;3.60;1.20;;;;;;;;;;5056337;28;20029;-59
2024/03/13 11:47:00;;;;;;;2.05;1.10;;;;;;;;;;5056445;28;20025;-57
2024/03/13 11:49:26;;;;;;;2.05;1.30;;;;;;;;;;5056132;28;20029;-57
2024/03/13 11:52:45;;;;;;;1.83;0.93;;;;;;;;;;5056534;28;20033;-58
2024/03/13 11:55:05;;;;;;;2.53;1.50;;;;;;;;;;5055734;28;20043;-59
2024/03/13 11:57:31;;;;;;;2.78;1.23;;;;;;;;;;5055525;28;20045;-58
2024/03/13 11:59:57;;;;;;;2.30;1.40;;;;;;;;;;5055730;28;20071;-58
2024/03/13 12:02:30;;;;;;;2.58;1.35;;;;;;;;;;5055562;28;20121;-57
2024/03/13 12:05:06;;;;;;;1.90;1.20;;;;;;;;;;5055417;28;20512;-58
2024/03/13 12:07:42;;;;;;;1.80;1.25;;;;;;;;;;5056245;28;20021;-58
2024/03/13 12:10:17;;;;;;;2.00;1.25;;;;;;;;;;5055797;28;20460;-58
2024/03/13 12:12:43;;;;;;;2.63;1.50;;;;;;;;;;5055356;28;20490;-58
2024/03/13 12:15:10;;;;;;;2.50;1.20;;;;;;;;;;5055313;28;20029;-57
2024/03/13 12:17:37;;;;;;;2.13;1.02;;;;;;;;;;5054073;28;20109;-58
2024/03/13 12:20:03;;;;;;;1.88;1.17;;;;;;;;;;5055755;28;20021;-57
2024/03/13 12:22:30;;;;;;;2.10;1.02;;;;;;;;;;5055664;28;20048;-58
2024/03/13 12:24:56;;;;;;;1.23;0.73;;;;;;;;;;5055151;28;20482;-58
2024/03/13 12:27:24;;;;;;;1.40;0.60;;;;;;;;;;5055180;28;20017;-58
2024/03/13 12:29:50;;;;;;;1.05;0.60;;;;;;;;;;5055403;28;20025;-58
2024/03/13 12:32:16;;;;;;;1.65;0.70;;;;;;;;;;5054602;28;20033;-57
2024/03/13 12:34:43;;;;;;;1.13;0.60;;;;;;;;;;5054605;28;20070;-58
2024/03/13 12:37:16;;;;;;;0.93;0.50;;;;;;;;;;5055679;28;20036;-58
2024/03/13 12:39:42;;;;;;;0.70;0.30;;;;;;;;;;5055759;28;20033;-58
2024/03/13 12:42:09;;;;;;;0.93;0.55;;;;;;;;;;5054707;28;20528;-58
2024/03/13 12:44:36;;;;;;;0.65;0.32;;;;;;;;;;5054785;28;20028;-58
2024/03/13 12:47:03;;;;;;;0.28;0.13;;;;;;;;;;5054734;28;20405;-58
2024/03/13 12:49:31;;;;;;;0.75;0.38;;;;;;;;;;5055467;28;20067;-59
2024/03/13 12:51:59;;;;;;;0.88;0.30;;;;;;;;;;5054573;28;20486;-58
2024/03/13 12:54:26;;;;;;;1.02;0.50;;;;;;;;;;5054130;28;20071;-58
2024/03/13 12:56:52;;;;;;;0.93;0.50;;;;;;;;;;5053903;28;20494;-58
2024/03/13 12:59:21;;;;;;;1.15;0.32;;;;;;;;;;5055144;28;20021;-58
2024/03/13 13:01:49;;;;;;;0.95;0.38;;;;;;;;;;5054999;28;20186;-57
2024/03/13 13:04:15;;;;;;;0.98;0.47;;;;;;;;;;5054184;28;20478;-58
2024/03/13 13:06:42;;;;;;;0.65;0.30;;;;;;;;;;5054956;28;20387;-58
2024/03/13 13:09:09;;;;;;;1.27;0.52;;;;;;;;;;5054357;28;20025;-58
2024/03/13 13:11:38;;;;;;;1.25;0.60;;;;;;;;;;5054226;28;20029;-58
2024/03/13 13:14:04;;;;;;;1.90;0.80;;;;;;;;;;5053964;28;20501;-58
2024/03/13 13:16:30;;;;;;;1.38;0.65;;;;;;;;;;5054165;28;20057;-59
2024/03/13 13:18:57;;;;;;;1.52;0.70;;;;;;;;;;5053988;28;20055;-58
2024/03/13 13:21:23;;;;;;;1.40;0.68;;;;;;;;;;5054929;28;20052;-59
2024/03/13 13:23:49;;;;;;;0.95;0.50;;;;;;;;;;5054066;28;20459;-58
2024/03/13 13:26:15;;;;;;;1.48;0.80;;;;;;;;;;5053866;28;20028;-58
2024/03/13 13:28:42;;;;;;;1.70;1.00;;;;;;;;;;5054625;28;20060;-58
2024/03/13 13:31:08;;;;;;;2.55;1.17;;;;;;;;;;5053846;28;20032;-57
2024/03/13 13:33:36;;;;;;;2.70;1.10;;;;;;;;;;5053838;28;20039;-58
2024/03/13 13:36:03;;;;;;;1.60;0.60;;;;;;;;;;5054483;28;20025;-58
2024/03/13 13:38:30;;;;;;;1.55;1.02;;;;;;;;;;5054656;28;20032;-57
2024/03/13 13:40:56;;;;;;;1.10;0.70;;;;;;;;;;5053780;28;20028;-58
2024/03/13 13:43:24;;;;;;;1.75;0.50;;;;;;;;;;5053670;28;20067;-58
2024/03/13 13:45:50;;;;;;;1.67;0.82;;;;;;;;;;5053623;28;20029;-58
2024/03/13 13:48:20;;;;;;;1.60;0.70;;;;;;;;;;5053955;28;20459;-58
2024/03/13 13:50:46;;;;;;;2.87;0.90;;;;;;;;;;5053604;28;20175;-58
2024/03/13 13:53:15;;;;;;;1.48;0.65;;;;;;;;;;5053321;28;20287;-58
2024/03/13 13:55:41;;;;;;;1.05;0.50;;;;;;;;;;5053866;28;20029;-58
2024/03/13 13:58:07;;;;;;;0.73;0.30;;;;;;;;;;5053882;28;20367;-58
2024/03/13 14:00:33;;;;;;;1.42;0.70;;;;;;;;;;5054238;28;20021;-57
2024/03/13 14:02:59;;;;;;;1.60;1.00;;;;;;;;;;5053507;28;20033;-58
2024/03/13 14:05:26;;;;;;;1.33;0.63;;;;;;;;;;5053482;28;20027;-58
2024/03/13 14:07:54;;;;;;;0.95;0.30;;;;;;;;;;5055793;28;20119;-58
2024/03/13 14:10:20;;;;;;;1.23;0.63;;;;;;;;;;5057922;28;20370;-58
2024/03/13 14:12:47;;;;;;;0.85;0.40;;;;;;;;;;5057252;28;20367;-58
2024/03/13 14:15:20;;;;;;;1.15;0.60;;;;;;;;;;5057214;28;20040;-57
2024/03/13 14:17:46;;;;;;;2.17;1.15;;;;;;;;;;5057523;28;20040;-58
2024/03/13 14:20:13;;;;;;;2.95;0.57;;;;;;;;;;5057920;28;20087;-57
2024/03/13 14:22:44;;;;;;;2.80;0.95;;;;;;;;;;5057790;28;20091;-58
2024/03/13 14:25:11;;;;;;;1.75;1.05;;;;;;;;;;5057976;28;20029;-58
2024/03/13 14:27:37;;;;;;;2.03;1.02;;;;;;;;;;5057450;28;20033;-57
2024/03/13 14:30:04;;;;;;;1.98;1.13;;;;;;;;;;5057903;28;20029;-57
2024/03/13 14:32:30;;;;;;;2.13;1.35;;;;;;;;;;5056888;28;20041;-58
2024/03/13 14:35:00;;;;;;;2.10;1.13;;;;;;;;;;5057150;28;20025;-58
2024/03/13 14:37:29;;;;;;;1.98;1.05;;;;;;;;;;5057729;28;20025;-58
2024/03/13 14:39:56;;;;;;;2.83;1.45;;;;;;;;;;5057930;28;20029;-58
2024/03/13 14:42:25;;;;;;;2.08;1.13;;;;;;;;;;5056888;28;20481;-58
2024/03/13 14:44:51;;;;;;;3.53;1.48;;;;;;;;;;5057864;28;20064;-58
2024/03/13 14:47:17;;;;;;;2.00;1.15;;;;;;;;;;5057056;28;20471;-58
2024/03/13 14:49:43;;;;;;;2.25;1.33;;;;;;;;;;5057005;28;20035;-57
2024/03/13 14:52:09;;;;;;;2.38;1.52;;;;;;;;;;5057144;28;20195;-57
2024/03/13 14:54:34;;;;;;;3.15;1.80;;;;;;;;;;5057079;28;20028;-58
2024/03/13 14:57:00;;;;;;;2.40;1.40;;;;;;;;;;5056858;28;20494;-57
2024/03/13 14:59:27;;;;;;;2.65;1.70;;;;;;;;;;5057155;28;20128;-57
2024/03/13 15:01:52;;;;;;;2.22;1.60;;;;;;;;;;5056635;28;20060;-57